Time;durP1;ratioP1;P1;durP2;ratioP2;P2;SDS_P1;SDS_P2;PMS_P1;PMS_P2;Temp;Humidity;BMP_temperature;BMP_pressure;BME280_temperature;BME280_humidity;BME280_pressure;Samples;Min_cycle;Max_cycle;Signal;HPM_P1;HPM_P2
2023/10/14 00:01:11;;;;;;;7.03;2.88;;;;;;;;;;5037968;28;20041;-86
2023/10/14 00:03:41;;;;;;;7.07;2.88;;;;;;;;;;5033898;28;20043;-86
2023/10/14 00:06:08;;;;;;;8.60;2.72;;;;;;;;;;5032962;28;20499;-87
2023/10/14 00:08:34;;;;;;;10.48;3.15;;;;;;;;;;5036310;28;20044;-87
2023/10/14 00:11:06;;;;;;;9.27;3.30;;;;;;;;;;5035406;28;20037;-87
2023/10/14 00:13:35;;;;;;;11.02;2.85;;;;;;;;;;5035536;28;20048;-87
2023/10/14 00:16:01;;;;;;;9.32;2.90;;;;;;;;;;5030570;28;20451;-87
2023/10/14 00:18:27;;;;;;;7.10;2.88;;;;;;;;;;5036033;28;20046;-86
2023/10/14 00:20:54;;;;;;;9.60;3.28;;;;;;;;;;5035777;28;20115;-87
2023/10/14 00:23:23;;;;;;;7.03;2.90;;;;;;;;;;5035579;28;20049;-87
2023/10/14 00:25:49;;;;;;;12.32;3.38;;;;;;;;;;5031139;28;20399;-87
2023/10/14 00:28:16;;;;;;;11.65;3.30;;;;;;;;;;5035823;28;20023;-87
2023/10/14 00:30:46;;;;;;;5.97;2.88;;;;;;;;;;5037501;28;20037;-85
2023/10/14 00:33:12;;;;;;;9.32;2.97;;;;;;;;;;5036644;28;20136;-87
2023/10/14 00:35:40;;;;;;;8.20;3.05;;;;;;;;;;5021345;28;20037;-87
2023/10/14 00:38:10;;;;;;;11.95;3.20;;;;;;;;;;5030102;28;20076;-87
2023/10/14 00:40:39;;;;;;;6.95;3.08;;;;;;;;;;5036705;28;20057;-86
2023/10/14 00:43:06;;;;;;;11.15;3.67;;;;;;;;;;5036521;28;20550;-87
2023/10/14 00:45:31;;;;;;;11.52;3.10;;;;;;;;;;5036266;28;20033;-87
2023/10/14 00:47:59;;;;;;;7.20;3.17;;;;;;;;;;5030375;28;20395;-87
2023/10/14 00:50:35;;;;;;;6.38;3.10;;;;;;;;;;5035769;28;20164;-87
2023/10/14 00:53:05;;;;;;;6.75;3.00;;;;;;;;;;5029249;28;20041;-87
2023/10/14 00:58:23;;;;;;;9.10;2.92;;;;;;;;;;5030537;28;20038;-87
2023/10/14 01:00:59;;;;;;;5.78;2.78;;;;;;;;;;5029406;28;20029;-87
2023/10/14 01:03:31;;;;;;;9.05;2.90;;;;;;;;;;5034698;28;20525;-85
2023/10/14 01:06:05;;;;;;;7.60;3.10;;;;;;;;;;5025208;28;20030;-86
2023/10/14 01:08:31;;;;;;;7.50;3.10;;;;;;;;;;5031101;28;20060;-87
2023/10/14 01:10:58;;;;;;;12.18;3.03;;;;;;;;;;5042629;28;20495;-87
2023/10/14 01:13:24;;;;;;;6.97;3.10;;;;;;;;;;5034139;28;20106;-87
2023/10/14 01:16:01;;;;;;;6.65;2.92;;;;;;;;;;5026837;28;20037;-87
2023/10/14 01:18:26;;;;;;;9.57;3.10;;;;;;;;;;5033291;28;20404;-87
2023/10/14 01:20:52;;;;;;;7.43;2.92;;;;;;;;;;5027312;28;20040;-86
2023/10/14 01:23:17;;;;;;;5.18;3.00;;;;;;;;;;5034905;28;20542;-87
2023/10/14 01:25:52;;;;;;;9.60;3.17;;;;;;;;;;5034559;28;20052;-87
2023/10/14 01:28:23;;;;;;;5.13;2.92;;;;;;;;;;5031706;28;20070;-87
2023/10/14 01:31:25;;;;;;;6.63;2.97;;;;;;;;;;5029925;28;20042;-86
2023/10/14 01:33:51;;;;;;;6.07;3.13;;;;;;;;;;5032358;28;20044;-87
2023/10/14 01:36:16;;;;;;;8.13;3.38;;;;;;;;;;5031024;28;20033;-87
2023/10/14 01:38:51;;;;;;;9.10;3.22;;;;;;;;;;5032792;28;20096;-87
2023/10/14 01:41:16;;;;;;;9.32;3.45;;;;;;;;;;5025616;28;20056;-87
2023/10/14 01:43:42;;;;;;;9.52;3.30;;;;;;;;;;5037543;28;20038;-87
2023/10/14 01:46:10;;;;;;;9.77;3.03;;;;;;;;;;5031725;28;20397;-87
2023/10/14 01:48:44;;;;;;;8.63;3.20;;;;;;;;;;5043304;28;20128;-87
2023/10/14 01:51:09;;;;;;;8.27;3.15;;;;;;;;;;5025339;28;20208;-87
2023/10/14 01:53:38;;;;;;;7.63;3.28;;;;;;;;;;5033815;28;20534;-87
2023/10/14 01:56:06;;;;;;;6.50;3.08;;;;;;;;;;5032867;28;20111;-87
2023/10/14 01:58:36;;;;;;;7.35;3.22;;;;;;;;;;5028051;28;20044;-87
2023/10/14 02:03:54;;;;;;;8.80;3.50;;;;;;;;;;5028320;28;20045;-87
2023/10/14 02:06:30;;;;;;;9.65;3.60;;;;;;;;;;5032966;28;20033;-87
2023/10/14 02:09:04;;;;;;;6.95;3.17;;;;;;;;;;5031605;28;20037;-87
2023/10/14 02:11:36;;;;;;;10.43;3.42;;;;;;;;;;5030720;28;20143;-87
2023/10/14 02:14:06;;;;;;;11.65;3.25;;;;;;;;;;5034199;28;20053;-87
2023/10/14 02:16:40;;;;;;;8.38;3.58;;;;;;;;;;5032945;28;20067;-86
2023/10/14 02:21:48;;;;;;;7.40;3.40;;;;;;;;;;5031328;28;20033;-87
2023/10/14 02:24:13;;;;;;;8.75;3.20;;;;;;;;;;5025702;28;20034;-87
2023/10/14 02:26:38;;;;;;;6.25;3.20;;;;;;;;;;5034026;28;20037;-87
2023/10/14 02:29:09;;;;;;;8.75;3.40;;;;;;;;;;5016266;28;20503;-87
2023/10/14 02:31:37;;;;;;;7.05;3.20;;;;;;;;;;5025648;28;20557;-87
2023/10/14 02:34:07;;;;;;;8.20;3.28;;;;;;;;;;5030473;28;20480;-86
2023/10/14 02:37:01;;;;;;;7.40;3.17;;;;;;;;;;5022290;28;20087;-87
2023/10/14 02:39:27;;;;;;;11.93;3.28;;;;;;;;;;5029338;28;20045;-86
2023/10/14 02:41:59;;;;;;;7.63;3.28;;;;;;;;;;5029269;28;20033;-87
2023/10/14 02:44:30;;;;;;;6.53;2.85;;;;;;;;;;5039086;28;20040;-87
2023/10/14 02:47:01;;;;;;;6.22;3.08;;;;;;;;;;5033447;28;20124;-87
2023/10/14 02:49:34;;;;;;;8.68;3.40;;;;;;;;;;5029168;28;20116;-87
2023/10/14 02:52:03;;;;;;;11.40;3.10;;;;;;;;;;5031728;28;20069;-87
2023/10/14 02:54:33;;;;;;;7.47;3.20;;;;;;;;;;5031827;28;20078;-87
2023/10/14 02:57:01;;;;;;;11.60;3.38;;;;;;;;;;5029847;28;20067;-86
2023/10/14 02:59:37;;;;;;;11.95;3.22;;;;;;;;;;5029325;28;20538;-87
2023/10/14 03:04:50;;;;;;;7.40;3.22;;;;;;;;;;5023032;28;20030;-87
2023/10/14 03:07:33;;;;;;;8.10;3.42;;;;;;;;;;5026289;28;20034;-87
2023/10/14 03:10:45;;;;;;;9.70;3.22;;;;;;;;;;5029407;28;20115;-86
2023/10/14 03:12:51;;;;;;;7.65;3.22;;;;;;;;;;5018805;28;20121;-87
2023/10/14 03:15:22;;;;;;;8.27;3.22;;;;;;;;;;5032029;28;20579;-87
2023/10/14 03:17:53;;;;;;;7.47;3.22;;;;;;;;;;5031608;28;20044;-87
2023/10/14 03:21:00;;;;;;;7.75;3.15;;;;;;;;;;5032087;28;20047;-86
2023/10/14 03:23:23;;;;;;;7.80;3.40;;;;;;;;;;5022647;28;20045;-86
2023/10/14 03:25:51;;;;;;;6.63;3.13;;;;;;;;;;5030181;28;20438;-87
2023/10/14 03:28:19;;;;;;;7.53;3.20;;;;;;;;;;5031999;28;20426;-87
2023/10/14 03:30:55;;;;;;;10.10;3.47;;;;;;;;;;5032950;28;20028;-85
2023/10/14 03:33:21;;;;;;;7.63;3.55;;;;;;;;;;5031098;28;20042;-86
2023/10/14 03:36:00;;;;;;;10.57;3.60;;;;;;;;;;5032022;28;20095;-84
2023/10/14 03:41:03;;;;;;;6.60;3.28;;;;;;;;;;5034272;28;20041;-87
2023/10/14 03:43:42;;;;;;;7.97;3.40;;;;;;;;;;5034304;28;20029;-86
2023/10/14 03:46:11;;;;;;;7.20;3.17;;;;;;;;;;5034315;28;20074;-87
2023/10/14 03:48:45;;;;;;;8.05;4.10;;;;;;;;;;5035918;28;20059;-87
2023/10/14 03:51:27;;;;;;;7.13;3.20;;;;;;;;;;5035239;28;20091;-87
2023/10/14 03:54:06;;;;;;;9.55;3.42;;;;;;;;;;5031884;28;20041;-86
2023/10/14 03:56:34;;;;;;;8.65;3.55;;;;;;;;;;5026099;28;20045;-87
2023/10/14 03:59:01;;;;;;;8.57;3.50;;;;;;;;;;5035390;28;20107;-87
2023/10/14 04:04:19;;;;;;;9.35;3.33;;;;;;;;;;5035924;28;20434;-87
2023/10/14 04:17:38;;;;;;;9.02;4.00;;;;;;;;;;5031158;28;20041;-87
2023/10/14 04:22:39;;;;;;;10.85;3.70;;;;;;;;;;5035956;28;20025;-87
2023/10/14 04:30:24;;;;;;;6.90;3.33;;;;;;;;;;5034425;28;20101;-87
2023/10/14 04:35:25;;;;;;;6.38;3.50;;;;;;;;;;5036208;28;20079;-87
2023/10/14 04:37:55;;;;;;;9.57;3.58;;;;;;;;;;5031778;28;20145;-87
2023/10/14 04:40:53;;;;;;;11.70;3.88;;;;;;;;;;5034681;28;20068;-86
2023/10/14 04:51:07;;;;;;;9.23;3.40;;;;;;;;;;5034063;28;20060;-87
2023/10/14 04:53:33;;;;;;;9.88;3.50;;;;;;;;;;5036085;28;20029;-86
2023/10/14 04:56:04;;;;;;;8.15;3.55;;;;;;;;;;5035520;28;20044;-87
2023/10/14 04:58:32;;;;;;;7.68;3.90;;;;;;;;;;5030201;28;20052;-86
2023/10/14 05:01:00;;;;;;;6.03;3.38;;;;;;;;;;5030638;28;20041;-86
2023/10/14 05:03:29;;;;;;;8.02;3.63;;;;;;;;;;5035987;28;20446;-87
2023/10/14 05:06:14;;;;;;;8.02;3.38;;;;;;;;;;5036296;28;20049;-86
2023/10/14 05:08:47;;;;;;;10.30;3.33;;;;;;;;;;5032759;28;20038;-87
2023/10/14 05:11:25;;;;;;;7.43;4.18;;;;;;;;;;5029337;28;20044;-87
2023/10/14 05:14:14;;;;;;;9.02;3.78;;;;;;;;;;5035424;28;20037;-87
2023/10/14 05:16:53;;;;;;;7.68;3.97;;;;;;;;;;5034311;28;20403;-87
2023/10/14 05:19:30;;;;;;;7.78;3.83;;;;;;;;;;5032761;28;20061;-87
2023/10/14 05:22:18;;;;;;;11.80;3.75;;;;;;;;;;5028991;28;20033;-87
2023/10/14 05:24:48;;;;;;;10.35;3.63;;;;;;;;;;5032914;28;20030;-87
2023/10/14 05:27:19;;;;;;;7.13;3.70;;;;;;;;;;5034207;28;20071;-87
2023/10/14 05:29:51;;;;;;;8.10;3.80;;;;;;;;;;5024424;28;20034;-86
2023/10/14 05:32:30;;;;;;;9.10;4.15;;;;;;;;;;5026865;28;20033;-87
2023/10/14 05:34:59;;;;;;;13.05;4.30;;;;;;;;;;5034483;28;20057;-87
2023/10/14 05:37:25;;;;;;;8.63;3.85;;;;;;;;;;5034234;28;20143;-88
2023/10/14 05:39:54;;;;;;;12.00;3.70;;;;;;;;;;5034282;28;20113;-87
2023/10/14 05:42:24;;;;;;;7.97;3.50;;;;;;;;;;5027890;28;20073;-86
2023/10/14 05:45:01;;;;;;;7.82;3.70;;;;;;;;;;5033074;28;20037;-87
2023/10/14 05:47:29;;;;;;;6.40;3.60;;;;;;;;;;5031157;28;20687;-87
2023/10/14 05:49:55;;;;;;;7.03;3.72;;;;;;;;;;5032698;28;20041;-86
2023/10/14 05:52:24;;;;;;;9.60;3.78;;;;;;;;;;5029626;28;20521;-87
2023/10/14 05:54:52;;;;;;;8.18;3.45;;;;;;;;;;5030722;28;20826;-86
2023/10/14 05:57:18;;;;;;;8.80;3.58;;;;;;;;;;5031426;28;20042;-86
2023/10/14 05:59:44;;;;;;;11.80;3.90;;;;;;;;;;5023762;28;20045;-86
2023/10/14 06:02:12;;;;;;;8.32;3.53;;;;;;;;;;5030717;28;20042;-86
2023/10/14 06:04:42;;;;;;;5.57;3.30;;;;;;;;;;5028756;28;20097;-87
2023/10/14 06:07:08;;;;;;;11.85;3.85;;;;;;;;;;5035407;28;20040;-87
2023/10/14 06:09:35;;;;;;;7.78;3.40;;;;;;;;;;5032392;28;20037;-87
2023/10/14 06:12:01;;;;;;;8.88;3.45;;;;;;;;;;5026826;28;20779;-87
2023/10/14 06:14:29;;;;;;;6.47;3.42;;;;;;;;;;5034935;28;20045;-85
2023/10/14 06:16:57;;;;;;;9.05;3.85;;;;;;;;;;5032250;28;20130;-87
2023/10/14 06:19:24;;;;;;;8.60;4.00;;;;;;;;;;5027520;28;20586;-87
2023/10/14 06:21:49;;;;;;;8.68;3.70;;;;;;;;;;5030817;28;20041;-88
2023/10/14 06:24:15;;;;;;;11.45;3.72;;;;;;;;;;5029665;28;20131;-87
2023/10/14 06:26:41;;;;;;;10.07;3.60;;;;;;;;;;5032828;28;20057;-87
2023/10/14 06:29:09;;;;;;;8.43;3.70;;;;;;;;;;5030879;28;20029;-87
2023/10/14 06:31:37;;;;;;;9.27;3.80;;;;;;;;;;5029720;28;20037;-86
2023/10/14 06:34:08;;;;;;;7.22;3.42;;;;;;;;;;5030341;28;20030;-87
2023/10/14 06:36:35;;;;;;;6.82;3.35;;;;;;;;;;5029901;28;20479;-86
2023/10/14 06:39:13;;;;;;;7.57;3.50;;;;;;;;;;5032050;28;20057;-86
2023/10/14 06:41:45;;;;;;;8.10;3.45;;;;;;;;;;5028501;28;20075;-86
2023/10/14 06:44:15;;;;;;;6.85;3.53;;;;;;;;;;5030171;28;20033;-86
2023/10/14 06:46:44;;;;;;;7.93;3.60;;;;;;;;;;5030848;28;20037;-86
2023/10/14 06:49:16;;;;;;;8.63;3.53;;;;;;;;;;5033908;28;20512;-85
2023/10/14 06:51:44;;;;;;;7.82;3.75;;;;;;;;;;5019665;28;20511;-86
2023/10/14 06:54:13;;;;;;;9.77;3.85;;;;;;;;;;5030465;28;20036;-87
2023/10/14 06:56:44;;;;;;;11.70;3.95;;;;;;;;;;5030375;28;20034;-85
2023/10/14 06:59:13;;;;;;;14.32;4.20;;;;;;;;;;5034121;28;20033;-85
2023/10/14 07:01:39;;;;;;;10.20;3.55;;;;;;;;;;5029645;28;20041;-87
2023/10/14 07:04:06;;;;;;;8.32;3.72;;;;;;;;;;5032597;28;20025;-86
2023/10/14 07:06:32;;;;;;;9.70;3.47;;;;;;;;;;5032778;28;20018;-86
2023/10/14 07:08:57;;;;;;;9.00;3.60;;;;;;;;;;5035443;28;20399;-86
2023/10/14 07:11:23;;;;;;;8.40;3.53;;;;;;;;;;5036028;28;20041;-86
2023/10/14 07:13:48;;;;;;;5.80;3.17;;;;;;;;;;5036361;28;20029;-88
2023/10/14 07:16:14;;;;;;;9.38;3.88;;;;;;;;;;5035596;28;20044;-88
2023/10/14 07:18:40;;;;;;;7.30;3.28;;;;;;;;;;5040738;28;20083;-91
2023/10/14 07:21:12;;;;;;;9.05;3.90;;;;;;;;;;5042203;28;20466;-87
2023/10/14 07:23:39;;;;;;;8.93;3.30;;;;;;;;;;5037090;28;20045;-87
2023/10/14 07:26:12;;;;;;;8.70;3.55;;;;;;;;;;5036366;28;20403;-87
2023/10/14 07:28:51;;;;;;;9.80;3.58;;;;;;;;;;5037962;28;20045;-88
2023/10/14 07:31:17;;;;;;;8.55;3.60;;;;;;;;;;5036714;28;20060;-88
2023/10/14 07:33:43;;;;;;;10.10;3.40;;;;;;;;;;5035372;28;20064;-87
2023/10/14 07:36:11;;;;;;;11.15;3.80;;;;;;;;;;5033976;28;20033;-88
2023/10/14 07:38:38;;;;;;;10.07;3.60;;;;;;;;;;5035953;28;20083;-87
2023/10/14 07:41:05;;;;;;;7.95;3.60;;;;;;;;;;5036102;28;20056;-86
2023/10/14 07:43:33;;;;;;;16.50;3.85;;;;;;;;;;5035262;28;20038;-86
2023/10/14 07:46:00;;;;;;;8.60;3.60;;;;;;;;;;5031455;28;20163;-86
2023/10/14 07:48:26;;;;;;;10.10;3.97;;;;;;;;;;5048295;28;20060;-85
2023/10/14 07:50:56;;;;;;;12.57;3.72;;;;;;;;;;5036032;28;20430;-85
2023/10/14 07:53:25;;;;;;;8.18;3.70;;;;;;;;;;5035129;28;20029;-86
2023/10/14 07:55:56;;;;;;;8.00;3.50;;;;;;;;;;5031148;28;20030;-85
2023/10/14 07:58:26;;;;;;;6.68;3.47;;;;;;;;;;5033248;28;20519;-86
2023/10/14 08:00:53;;;;;;;8.40;3.75;;;;;;;;;;5037786;28;20065;-86
2023/10/14 08:03:25;;;;;;;6.75;3.50;;;;;;;;;;5036863;28;20044;-87
2023/10/14 08:05:53;;;;;;;8.23;3.85;;;;;;;;;;5032520;28;20064;-87
2023/10/14 08:08:20;;;;;;;8.35;3.78;;;;;;;;;;5036205;28;20041;-87
2023/10/14 08:10:49;;;;;;;9.05;3.72;;;;;;;;;;5035025;28;20033;-86
2023/10/14 08:13:18;;;;;;;9.27;3.88;;;;;;;;;;5035093;28;20044;-88
2023/10/14 08:15:43;;;;;;;8.75;3.75;;;;;;;;;;5031903;28;20102;-87
2023/10/14 08:18:11;;;;;;;12.00;3.47;;;;;;;;;;5031873;28;20587;-88
2023/10/14 08:20:37;;;;;;;8.07;3.63;;;;;;;;;;5031501;28;20052;-87
2023/10/14 08:23:09;;;;;;;9.02;4.07;;;;;;;;;;5034087;28;20037;-88
2023/10/14 08:25:35;;;;;;;7.30;3.17;;;;;;;;;;5032581;28;20037;-88
2023/10/14 08:28:05;;;;;;;7.80;3.47;;;;;;;;;;5030918;28;20120;-87
2023/10/14 08:30:42;;;;;;;12.25;3.63;;;;;;;;;;5032956;28;20199;-87
2023/10/14 08:33:09;;;;;;;9.23;3.63;;;;;;;;;;5034320;28;20037;-87
2023/10/14 08:35:36;;;;;;;8.27;3.85;;;;;;;;;;5034941;28;20037;-87
2023/10/14 08:38:02;;;;;;;8.88;3.80;;;;;;;;;;5042251;28;20041;-87
2023/10/14 08:40:29;;;;;;;7.70;3.55;;;;;;;;;;5033185;28;20065;-87
2023/10/14 08:43:05;;;;;;;7.50;3.60;;;;;;;;;;5037251;28;20041;-87
2023/10/14 08:45:36;;;;;;;7.38;3.47;;;;;;;;;;5034409;28;20040;-87
2023/10/14 08:48:03;;;;;;;9.23;3.70;;;;;;;;;;5026666;28;20455;-87
2023/10/14 08:50:35;;;;;;;7.18;3.40;;;;;;;;;;5029430;28;20054;-87
2023/10/14 08:53:05;;;;;;;7.32;3.50;;;;;;;;;;5031703;28;20038;-87
2023/10/14 08:55:33;;;;;;;8.57;3.35;;;;;;;;;;5028706;28;20038;-86
2023/10/14 08:58:05;;;;;;;8.52;3.50;;;;;;;;;;5036131;28;20124;-87
2023/10/14 09:00:35;;;;;;;7.82;3.53;;;;;;;;;;5031600;28;20203;-86
2023/10/14 09:03:02;;;;;;;6.18;3.35;;;;;;;;;;5029274;28;20042;-86
2023/10/14 09:05:30;;;;;;;7.15;3.33;;;;;;;;;;5024940;28;20048;-87
2023/10/14 09:07:57;;;;;;;8.98;3.80;;;;;;;;;;5030368;28;20112;-87
2023/10/14 09:10:24;;;;;;;7.60;3.45;;;;;;;;;;5022256;28;20037;-87
2023/10/14 09:12:54;;;;;;;7.97;2.83;;;;;;;;;;5031668;28;20033;-86
2023/10/14 09:15:21;;;;;;;8.02;3.28;;;;;;;;;;5031333;28;20063;-87
2023/10/14 09:17:47;;;;;;;12.00;3.35;;;;;;;;;;5030179;28;20057;-86
2023/10/14 09:20:34;;;;;;;9.60;3.17;;;;;;;;;;5033170;28;20156;-87
2023/10/14 09:23:15;;;;;;;9.00;3.35;;;;;;;;;;5027570;28;20042;-86
2023/10/14 09:25:49;;;;;;;6.75;3.50;;;;;;;;;;5034127;28;20036;-87
2023/10/14 09:28:17;;;;;;;8.23;3.15;;;;;;;;;;5032492;28;20057;-87
2023/10/14 09:30:49;;;;;;;6.90;2.90;;;;;;;;;;5038086;28;20022;-87
2023/10/14 09:33:27;;;;;;;7.18;3.38;;;;;;;;;;5030244;28;20041;-87
2023/10/14 09:35:58;;;;;;;8.85;3.63;;;;;;;;;;5035756;28;20499;-87
2023/10/14 09:38:25;;;;;;;6.93;3.38;;;;;;;;;;5032591;28;20038;-88
2023/10/14 09:40:57;;;;;;;7.03;3.13;;;;;;;;;;5035766;28;20051;-87
2023/10/14 09:43:24;;;;;;;5.47;3.00;;;;;;;;;;5030857;28;20111;-87
2023/10/14 09:45:57;;;;;;;6.20;3.33;;;;;;;;;;5036607;28;20033;-88
2023/10/14 09:48:27;;;;;;;7.72;3.35;;;;;;;;;;5032332;28;20013;-87
2023/10/14 09:50:56;;;;;;;7.32;3.38;;;;;;;;;;5039916;28;20045;-87
2023/10/14 09:53:29;;;;;;;10.85;3.10;;;;;;;;;;5038363;28;20036;-87
2023/10/14 09:56:19;;;;;;;6.18;3.47;;;;;;;;;;5044875;28;20031;-87
2023/10/14 09:58:46;;;;;;;8.63;3.40;;;;;;;;;;5034270;28;20454;-87
2023/10/14 10:01:17;;;;;;;9.20;3.40;;;;;;;;;;5035016;28;20056;-87
2023/10/14 10:04:17;;;;;;;6.38;2.92;;;;;;;;;;5032436;28;20064;-88
2023/10/14 10:06:52;;;;;;;7.90;3.20;;;;;;;;;;5005486;28;20042;-88
2023/10/14 10:09:57;;;;;;;5.82;3.30;;;;;;;;;;5033104;28;20173;-88
2023/10/14 10:12:25;;;;;;;7.40;3.35;;;;;;;;;;5030358;28;20068;-86
2023/10/14 10:14:58;;;;;;;8.02;3.53;;;;;;;;;;5030453;28;20037;-87
2023/10/14 10:17:26;;;;;;;6.68;3.30;;;;;;;;;;5036252;28;20087;-87
2023/10/14 10:20:09;;;;;;;8.93;3.25;;;;;;;;;;5036086;28;20136;-87
2023/10/14 10:22:51;;;;;;;8.02;3.42;;;;;;;;;;5030212;28;20064;-87
2023/10/14 10:25:21;;;;;;;5.88;3.33;;;;;;;;;;5028646;28;20099;-87
2023/10/14 10:27:49;;;;;;;7.85;3.40;;;;;;;;;;5035638;28;20034;-87
2023/10/14 10:30:18;;;;;;;8.77;3.33;;;;;;;;;;5032975;28;20037;-87
2023/10/14 10:32:48;;;;;;;6.05;3.33;;;;;;;;;;5031037;28;20034;-86
2023/10/14 10:35:16;;;;;;;5.28;3.08;;;;;;;;;;5031596;28;20029;-86
2023/10/14 10:37:47;;;;;;;8.18;3.00;;;;;;;;;;5034564;28;20108;-86
2023/10/14 10:40:16;;;;;;;7.88;3.15;;;;;;;;;;5032759;28;20048;-86
2023/10/14 10:43:11;;;;;;;3.63;2.60;;;;;;;;;;5029612;28;20037;-86
2023/10/14 10:45:42;;;;;;;6.80;2.97;;;;;;;;;;5031174;28;20040;-86
2023/10/14 10:48:14;;;;;;;5.00;2.67;;;;;;;;;;5034255;28;20052;-86
2023/10/14 10:50:40;;;;;;;6.15;2.50;;;;;;;;;;5033223;28;20102;-86
2023/10/14 10:53:09;;;;;;;8.93;2.45;;;;;;;;;;5028438;28;20037;-86
2023/10/14 10:55:38;;;;;;;5.88;2.50;;;;;;;;;;5032878;28;20073;-85
2023/10/14 10:58:07;;;;;;;5.57;2.50;;;;;;;;;;5032892;28;20056;-86
2023/10/14 11:00:33;;;;;;;7.45;2.42;;;;;;;;;;5034534;28;20566;-85
2023/10/14 11:03:03;;;;;;;7.70;2.60;;;;;;;;;;5032087;28;20137;-86
2023/10/14 11:05:31;;;;;;;4.55;2.40;;;;;;;;;;5034069;28;20136;-86
2023/10/14 11:07:57;;;;;;;5.90;2.50;;;;;;;;;;5034122;28;20039;-87
2023/10/14 11:10:26;;;;;;;4.80;2.25;;;;;;;;;;5027015;28;20040;-87
2023/10/14 11:12:54;;;;;;;5.78;2.63;;;;;;;;;;5033214;28;20068;-87
2023/10/14 11:15:21;;;;;;;4.43;2.20;;;;;;;;;;5032733;28;20554;-85
2023/10/14 11:17:51;;;;;;;4.32;2.20;;;;;;;;;;5034059;28;20435;-86
2023/10/14 11:20:17;;;;;;;4.65;2.20;;;;;;;;;;5018147;28;20032;-86
2023/10/14 11:22:43;;;;;;;6.63;2.10;;;;;;;;;;5031903;28;20037;-86
2023/10/14 11:25:11;;;;;;;4.00;2.00;;;;;;;;;;5031520;28;20034;-86
2023/10/14 11:27:36;;;;;;;4.95;1.92;;;;;;;;;;5031601;28;20030;-86
2023/10/14 11:30:06;;;;;;;3.65;1.80;;;;;;;;;;5033436;28;20049;-86
2023/10/14 11:32:31;;;;;;;4.35;1.90;;;;;;;;;;5034063;28;20053;-86
2023/10/14 11:34:58;;;;;;;5.00;1.70;;;;;;;;;;5032675;28;20033;-86
2023/10/14 11:37:26;;;;;;;6.40;1.77;;;;;;;;;;5030937;28;20075;-86
2023/10/14 11:39:53;;;;;;;4.07;1.60;;;;;;;;;;5033774;28;20049;-86
2023/10/14 11:42:19;;;;;;;4.97;1.80;;;;;;;;;;5033126;28;20037;-86
2023/10/14 11:44:48;;;;;;;2.95;1.65;;;;;;;;;;5031705;28;20113;-86
2023/10/14 11:47:16;;;;;;;3.97;1.48;;;;;;;;;;5031914;28;20087;-86
2023/10/14 11:49:46;;;;;;;5.10;1.67;;;;;;;;;;5034047;28;20419;-86
2023/10/14 11:52:12;;;;;;;3.38;1.60;;;;;;;;;;5033511;28;20067;-86
2023/10/14 11:54:41;;;;;;;4.60;1.75;;;;;;;;;;5032011;28;20067;-86
2023/10/14 11:57:07;;;;;;;5.60;1.80;;;;;;;;;;5032767;28;20136;-86
2023/10/14 11:59:33;;;;;;;4.22;1.80;;;;;;;;;;5035772;28;20041;-86
2023/10/14 12:01:58;;;;;;;3.78;1.67;;;;;;;;;;5037809;28;20044;-86
2023/10/14 12:04:24;;;;;;;9.32;1.60;;;;;;;;;;5036574;28;20069;-86
2023/10/14 12:06:49;;;;;;;3.53;1.50;;;;;;;;;;5034566;28;20026;-86
2023/10/14 12:09:16;;;;;;;4.80;1.70;;;;;;;;;;5038308;28;20858;-87
2023/10/14 12:11:42;;;;;;;3.38;1.50;;;;;;;;;;5037164;28;20053;-86
2023/10/14 12:14:11;;;;;;;2.90;1.52;;;;;;;;;;5036332;28;20041;-86
2023/10/14 12:16:40;;;;;;;4.53;1.67;;;;;;;;;;5035244;28;20442;-87
2023/10/14 12:19:05;;;;;;;7.15;1.67;;;;;;;;;;5030739;28;20025;-85
2023/10/14 12:21:31;;;;;;;9.50;2.00;;;;;;;;;;5033816;28;20388;-85
2023/10/14 12:24:03;;;;;;;6.03;1.70;;;;;;;;;;5035491;28;20063;-84
2023/10/14 12:26:33;;;;;;;5.53;1.60;;;;;;;;;;5039715;28;20040;-85
2023/10/14 12:28:58;;;;;;;4.15;1.65;;;;;;;;;;5034332;28;20045;-86
2023/10/14 12:31:26;;;;;;;5.25;1.40;;;;;;;;;;5037941;28;20037;-86
2023/10/14 12:33:53;;;;;;;3.22;1.55;;;;;;;;;;5037559;28;20041;-87
2023/10/14 12:36:19;;;;;;;3.20;1.80;;;;;;;;;;5038323;28;20041;-87
2023/10/14 12:38:45;;;;;;;5.40;1.58;;;;;;;;;;5034532;28;20057;-86
2023/10/14 12:41:13;;;;;;;6.90;1.63;;;;;;;;;;5029965;28;20037;-86
2023/10/14 12:43:39;;;;;;;3.67;1.52;;;;;;;;;;5036335;28;20037;-87
2023/10/14 12:46:10;;;;;;;5.88;1.40;;;;;;;;;;5034767;28;20022;-86
2023/10/14 12:48:39;;;;;;;3.72;1.40;;;;;;;;;;5034034;28;20033;-86
2023/10/14 12:51:11;;;;;;;2.33;1.30;;;;;;;;;;5030087;28;20033;-87
2023/10/14 12:53:37;;;;;;;6.00;1.45;;;;;;;;;;5034566;28;20060;-86
2023/10/14 12:56:03;;;;;;;2.17;1.23;;;;;;;;;;5033363;28;20034;-86
2023/10/14 12:58:29;;;;;;;3.55;1.40;;;;;;;;;;5034643;28;20044;-86
2023/10/14 13:00:56;;;;;;;3.97;1.45;;;;;;;;;;5030564;28;20075;-85
2023/10/14 13:03:23;;;;;;;3.90;1.67;;;;;;;;;;5029701;28;20107;-86
2023/10/14 13:05:52;;;;;;;4.97;1.20;;;;;;;;;;5034016;28;20033;-86
2023/10/14 13:08:19;;;;;;;5.25;2.05;;;;;;;;;;5034536;28;20044;-86
2023/10/14 13:10:45;;;;;;;2.88;1.10;;;;;;;;;;5033421;28;20025;-86
2023/10/14 13:13:13;;;;;;;2.40;1.30;;;;;;;;;;5033099;28;20033;-86
2023/10/14 13:15:39;;;;;;;3.33;1.27;;;;;;;;;;5035138;28;20188;-87
2023/10/14 13:18:05;;;;;;;2.55;1.05;;;;;;;;;;5032065;28;20061;-86
2023/10/14 13:20:35;;;;;;;2.15;1.13;;;;;;;;;;5035035;28;20487;-86
2023/10/14 13:23:07;;;;;;;5.55;1.25;;;;;;;;;;5025779;28;20041;-86
2023/10/14 13:25:37;;;;;;;3.38;1.00;;;;;;;;;;5035042;28;20044;-86
2023/10/14 13:28:11;;;;;;;2.15;1.10;;;;;;;;;;5033809;28;20041;-86
2023/10/14 13:30:45;;;;;;;5.63;1.30;;;;;;;;;;5033375;28;20073;-86
2023/10/14 13:33:12;;;;;;;2.78;1.05;;;;;;;;;;5020332;28;20037;-86
2023/10/14 13:35:38;;;;;;;4.43;1.10;;;;;;;;;;5032682;28;20037;-85
2023/10/14 13:38:08;;;;;;;1.90;1.10;;;;;;;;;;5031494;28;20070;-86
2023/10/14 13:40:34;;;;;;;1.85;1.05;;;;;;;;;;5029347;28;20047;-86
2023/10/14 13:43:00;;;;;;;1.75;1.30;;;;;;;;;;5029509;28;20046;-86
2023/10/14 13:45:27;;;;;;;2.58;1.10;;;;;;;;;;5026901;28;20479;-87
2023/10/14 13:47:53;;;;;;;2.25;1.23;;;;;;;;;;5029655;28;20119;-86
2023/10/14 13:50:22;;;;;;;1.65;1.23;;;;;;;;;;5030882;28;20364;-85
2023/10/14 13:52:53;;;;;;;2.17;1.10;;;;;;;;;;5028759;28;20426;-86
2023/10/14 13:55:19;;;;;;;3.33;1.20;;;;;;;;;;5028865;28;20075;-86
2023/10/14 13:57:46;;;;;;;3.38;1.30;;;;;;;;;;5030006;28;20037;-85
2023/10/14 14:00:35;;;;;;;3.05;1.50;;;;;;;;;;5032538;28;20129;-85
2023/10/14 14:03:06;;;;;;;4.97;1.23;;;;;;;;;;5029968;28;20040;-85
2023/10/14 14:05:33;;;;;;;4.78;1.33;;;;;;;;;;5028947;28;20037;-86
2023/10/14 14:07:59;;;;;;;4.63;1.30;;;;;;;;;;5032064;28;20119;-86
2023/10/14 14:10:25;;;;;;;1.90;1.30;;;;;;;;;;5030766;28;20538;-87
2023/10/14 14:12:53;;;;;;;4.20;1.45;;;;;;;;;;5033449;28;20036;-87
2023/10/14 14:15:23;;;;;;;2.78;1.60;;;;;;;;;;5032489;28;20049;-87
2023/10/14 14:17:49;;;;;;;2.75;1.35;;;;;;;;;;5029970;28;20565;-87
2023/10/14 14:20:15;;;;;;;2.58;1.30;;;;;;;;;;5022838;28;20061;-89
2023/10/14 14:22:44;;;;;;;3.17;1.50;;;;;;;;;;5030546;28;20037;-88
2023/10/14 14:25:14;;;;;;;4.53;1.45;;;;;;;;;;5032031;28;20037;-87
2023/10/14 14:27:45;;;;;;;2.97;1.40;;;;;;;;;;5032837;28;20040;-88
2023/10/14 14:30:12;;;;;;;2.47;1.27;;;;;;;;;;5031807;28;20447;-87
2023/10/14 14:32:38;;;;;;;4.30;1.30;;;;;;;;;;5031908;28;20037;-87
2023/10/14 14:35:08;;;;;;;4.25;1.50;;;;;;;;;;5033105;28;20071;-87
2023/10/14 14:37:45;;;;;;;3.40;1.30;;;;;;;;;;5030212;28;20049;-87
2023/10/14 14:40:13;;;;;;;3.17;1.60;;;;;;;;;;5027813;28;20037;-88
2023/10/14 14:42:44;;;;;;;4.20;1.70;;;;;;;;;;5024567;28;20044;-88
2023/10/14 14:45:13;;;;;;;3.50;1.80;;;;;;;;;;5029700;28;20040;-86
2023/10/14 14:47:40;;;;;;;4.55;1.90;;;;;;;;;;5027155;28;20144;-87
2023/10/14 14:50:13;;;;;;;4.72;1.80;;;;;;;;;;5028239;28;20041;-88
2023/10/14 14:52:43;;;;;;;4.78;2.00;;;;;;;;;;5032218;28;20029;-88
2023/10/14 14:55:14;;;;;;;5.00;1.60;;;;;;;;;;5025899;28;20053;-89
2023/10/14 14:57:44;;;;;;;4.15;1.73;;;;;;;;;;5026732;28;20115;-89
2023/10/14 15:00:14;;;;;;;3.08;1.50;;;;;;;;;;5027727;28;20116;-88
2023/10/14 15:02:43;;;;;;;5.35;1.65;;;;;;;;;;5015113;28;20040;-89
2023/10/14 15:05:10;;;;;;;3.90;1.73;;;;;;;;;;5025184;28;20022;-89
2023/10/14 15:07:36;;;;;;;4.10;1.60;;;;;;;;;;5025745;28;20034;-89
2023/10/14 15:10:05;;;;;;;3.65;1.70;;;;;;;;;;5027976;28;20040;-89
2023/10/14 15:12:34;;;;;;;3.85;1.70;;;;;;;;;;5025262;28;20491;-88
2023/10/14 15:15:01;;;;;;;5.40;1.98;;;;;;;;;;5029346;28;20049;-90
2023/10/14 15:17:28;;;;;;;6.15;2.55;;;;;;;;;;5028124;28;20044;-88
2023/10/14 15:19:55;;;;;;;8.70;2.80;;;;;;;;;;5036749;28;20038;-89
2023/10/14 15:22:21;;;;;;;9.90;2.53;;;;;;;;;;5025407;28;20486;-88
2023/10/14 15:24:47;;;;;;;9.65;2.30;;;;;;;;;;5027013;28;20037;-88
2023/10/14 15:27:13;;;;;;;2.80;1.80;;;;;;;;;;5028805;28;20099;-89
2023/10/14 15:29:38;;;;;;;6.57;1.80;;;;;;;;;;5027209;28;20045;-88
2023/10/14 15:32:05;;;;;;;5.47;1.65;;;;;;;;;;5027392;28;20099;-88
2023/10/14 15:34:30;;;;;;;5.07;2.10;;;;;;;;;;5028368;28;20037;-89
2023/10/14 15:36:57;;;;;;;4.18;1.75;;;;;;;;;;5033740;28;20075;-89
2023/10/14 15:39:31;;;;;;;5.57;1.80;;;;;;;;;;5030552;28;20135;-88
2023/10/14 15:41:57;;;;;;;6.60;1.92;;;;;;;;;;5032712;28;20044;-88